Airfield :
LOGIN :

Register | Disclaimer

   EN    FR    IT 

 










Legend :    VFR   Marginal VFR   IFR   Intensive IFR   Very Intensive IFR
Visi :
Ceiling :
>= 8 km
>= 3000ft
5 to 8 km
1000 to 3000 ft
1500m to 5 km
500 to 1000 ft
800 to 1500m
200 to 500 ft
< 800m
< 200 ft
Symbols :   Thunderstorms  Fog  Heavy snow  Heavy precipitations  Wind > 20 kt
SIGMETs :     Misc.  Thunderstorms  Icing  Turbulence  Mountain Waves  Volcanic Ashes







- Airport Elevation : 359 ft
- IATA code : BVA
- Download approach charts


LFOB - Beauvais

CURRENT METAR :
  • 191630Z AUTO 30009KT CAVOK 15/08 Q1021 BECMG 3000 BR

EXPIRED METARs :
  • 191600Z AUTO 31009KT CAVOK 16/08 Q1021 NOSIG
  • 191530Z AUTO 33009KT 9999 FEW040 BKN058 16/08 Q1021 NOSIG
  • 191500Z AUTO 34010KT 9999 FEW034 OVC056 17/08 Q1021 NOSIG
  • 191430Z AUTO 33010KT 290V360 9999 FEW041 BKN056 BKN220 17/07 Q1021 NOSIG
  • 191400Z AUTO 34009KT 290V010 9999 FEW042 SCT050 17/07 Q1021 NOSIG

TAF TAF LFOB
Valid from the 19 at 12:00 until the 20 at 12:00 UTC


191100Z 1912/2012 33012KT 9999 SCT030
BECMG 1918/1921 VRB02KT 3000 BR
PROB40
TEMPO 2000/2007 0500 BCFG OVC001
BECMG 2007/2010 24007KT 9999 NSW
ATIS : +33 3 44 11 49 28
No reported NOTAMs for that airfield.



MET'MAP, your aeronautical weather chart ! - Copyright ORBIFLY December 2007 - Disclaimer

ORBIFLY MET'MAP TEAM :

Programming & Development : Alexandra Zaïnal
Concept & Development : Baudouin d'Aumeries
Co-Development & Prog : Marc-Olivier Méhu
Technical & hardware support : Manuel Goepfert

Contact : metmap@orbifly.com




SOURCES & CREDITS :

   NOAA